createdAt,value
2019-04-27T00:00:11.811Z,14.18
2019-04-27T00:02:44.767Z,14.20
2019-04-27T00:05:16.204Z,14.03
2019-04-27T00:07:51.341Z,13.00
2019-04-27T00:10:26.998Z,13.32
2019-04-27T00:12:53.057Z,13.05
2019-04-27T00:15:31.137Z,13.10
2019-04-27T00:17:58.548Z,12.93
2019-04-27T00:20:29.939Z,13.80
2019-04-27T00:23:01.288Z,14.25
2019-04-27T00:25:32.660Z,12.65
2019-04-27T00:28:03.546Z,13.78
2019-04-27T00:30:35.639Z,14.60
2019-04-27T00:33:05.695Z,13.25
2019-04-27T00:35:36.929Z,13.65
2019-04-27T00:38:08.327Z,13.85
2019-04-27T00:40:39.727Z,14.00
2019-04-27T00:43:09.586Z,13.68
2019-04-27T00:45:39.425Z,14.03
2019-04-27T00:48:09.585Z,13.50
2019-04-27T00:50:39.410Z,13.78
2019-04-27T00:53:09.342Z,12.10
2019-04-27T00:55:40.915Z,14.18
2019-04-27T00:58:13.055Z,14.20
2019-04-27T01:00:44.537Z,14.45
2019-04-27T01:03:16.080Z,13.78
2019-04-27T01:05:45.952Z,14.10
2019-04-27T01:08:15.795Z,14.25
2019-04-27T01:10:45.631Z,13.53
2019-04-27T01:13:15.307Z,14.70
2019-04-27T01:15:45.031Z,14.90
2019-04-27T01:18:15.620Z,14.05
2019-04-27T01:20:45.492Z,15.13
2019-04-27T01:23:15.522Z,15.43
2019-04-27T01:25:46.796Z,14.80
2019-04-27T01:28:18.630Z,14.95
2019-04-27T01:30:51.332Z,15.00
2019-04-27T01:33:21.110Z,15.48
2019-04-27T01:35:50.948Z,14.70
2019-04-27T01:38:20.755Z,14.63
2019-04-27T01:40:50.413Z,14.85
2019-04-27T01:43:20.072Z,15.28
2019-04-27T01:45:49.808Z,15.68
2019-04-27T01:48:23.678Z,14.40
2019-04-27T01:50:50.986Z,15.18
2019-04-27T01:53:20.886Z,15.98
2019-04-27T01:55:50.724Z,15.08
2019-04-27T01:58:20.340Z,14.18
2019-04-27T02:00:51.848Z,16.67
2019-04-27T02:03:23.277Z,15.88
2019-04-27T02:05:54.753Z,15.98
2019-04-27T02:08:24.672Z,15.43
2019-04-27T02:10:54.615Z,15.70
2019-04-27T02:13:24.512Z,15.55
2019-04-27T02:15:55.395Z,15.25
2019-04-27T02:18:36.332Z,15.40
2019-04-27T02:20:56.599Z,15.65
2019-04-27T02:23:27.137Z,15.95
2019-04-27T02:25:58.569Z,15.83
2019-04-27T02:28:30.284Z,16.12
2019-04-27T02:31:03.385Z,16.62
2019-04-27T02:33:34.739Z,15.68
2019-04-27T02:36:04.633Z,15.32
2019-04-27T02:38:34.448Z,15.95
2019-04-27T02:41:05.180Z,16.00
2019-04-27T02:43:36.897Z,16.02
2019-04-27T02:46:09.393Z,15.93
2019-04-27T02:48:54.746Z,16.95
2019-04-27T02:53:42.732Z,16.52
2019-04-27T02:56:12.558Z,17.48
2019-04-27T02:58:42.513Z,17.07
2019-04-27T03:01:12.217Z,18.07
2019-04-27T03:03:42.205Z,17.77
2019-04-27T03:06:12.077Z,17.10
2019-04-27T03:08:42.670Z,16.82
2019-04-27T03:11:14.495Z,18.00
2019-04-27T03:13:51.714Z,17.45
2019-04-27T03:16:20.547Z,17.10
2019-04-27T03:19:09.830Z,17.65
2019-04-27T03:21:26.427Z,17.45
2019-04-27T03:23:56.444Z,17.98
2019-04-27T03:26:30.991Z,18.35
2019-04-27T03:29:00.168Z,18.23
2019-04-27T03:31:32.753Z,18.45
2019-04-27T03:34:05.415Z,17.55
2019-04-27T03:36:33.289Z,18.37
2019-04-27T03:39:03.277Z,19.05
2019-04-27T03:41:33.268Z,18.15
2019-04-27T03:44:03.520Z,18.85
2019-04-27T03:46:34.553Z,18.52
2019-04-27T03:49:05.202Z,18.55
2019-04-27T03:51:36.694Z,17.92
2019-04-27T03:54:10.388Z,18.42
2019-04-27T03:56:41.356Z,19.50
2019-04-27T03:59:12.839Z,18.50
2019-04-27T04:01:42.774Z,18.50
2019-04-27T04:04:12.486Z,17.73
2019-04-27T04:06:42.333Z,18.70
2019-04-27T04:09:12.906Z,19.07
2019-04-27T04:14:30.930Z,18.62
2019-04-27T04:17:03.152Z,17.82
2019-04-27T04:19:47.809Z,18.45
2019-04-27T04:22:04.784Z,18.25
2019-04-27T04:24:34.618Z,17.92
2019-04-27T04:27:04.717Z,17.05
2019-04-27T04:29:34.605Z,18.15
2019-04-27T04:32:05.597Z,18.20
2019-04-27T04:34:35.407Z,17.37
2019-04-27T04:37:05.309Z,18.85
2019-04-27T04:39:35.202Z,18.30
2019-04-27T04:42:10.068Z,17.82
2019-04-27T04:44:40.756Z,17.25
2019-04-27T04:47:12.532Z,19.48
2019-04-27T04:49:42.460Z,16.85
2019-04-27T04:52:12.366Z,16.90
2019-04-27T04:54:41.842Z,17.55
2019-04-27T04:57:11.736Z,18.27
2019-04-27T04:59:43.717Z,17.48
2019-04-27T05:02:13.250Z,19.10
2019-04-27T05:04:43.046Z,17.00
2019-04-27T05:07:12.865Z,17.12
2019-04-27T05:09:42.732Z,16.87
2019-04-27T05:12:12.484Z,16.77
2019-04-27T05:14:42.313Z,18.00
2019-04-27T05:17:12.193Z,17.85
2019-04-27T05:19:41.828Z,18.75
2019-04-27T05:22:11.708Z,17.05
2019-04-27T05:24:41.520Z,18.23
2019-04-27T05:27:12.906Z,19.70
2019-04-27T05:29:42.814Z,18.90
2019-04-27T05:32:12.731Z,17.98
2019-04-27T05:34:42.805Z,18.57
2019-04-27T05:37:12.607Z,17.40
2019-04-27T05:39:42.256Z,18.20
2019-04-27T05:42:16.979Z,18.77
2019-04-27T05:44:48.991Z,17.35
2019-04-27T05:47:20.446Z,17.57
2019-04-27T05:49:50.641Z,16.32
2019-04-27T05:52:22.098Z,16.97
2019-04-27T05:54:52.004Z,16.73
2019-04-27T05:57:21.813Z,17.30
2019-04-27T05:59:53.627Z,17.35
2019-04-27T06:02:24.479Z,17.35
2019-04-27T06:04:54.427Z,18.50
2019-04-27T06:07:24.348Z,16.62
2019-04-27T06:09:54.251Z,18.73
2019-04-27T06:12:24.201Z,16.85
2019-04-27T06:14:53.916Z,18.10
2019-04-27T06:17:23.569Z,19.42
2019-04-27T06:19:53.490Z,18.12
2019-04-27T06:22:24.299Z,19.48
2019-04-27T06:24:54.617Z,18.45
2019-04-27T06:27:25.589Z,17.85
2019-04-27T06:29:55.444Z,16.55
2019-04-27T06:32:25.327Z,16.95
2019-04-27T06:34:55.203Z,17.10
2019-04-27T06:37:25.151Z,17.30
2019-04-27T06:39:55.057Z,18.17
2019-04-27T06:42:24.926Z,17.62
2019-04-27T06:44:54.706Z,17.85
2019-04-27T06:47:24.578Z,17.05
2019-04-27T06:49:54.550Z,16.50
2019-04-27T06:52:24.612Z,16.50
2019-04-27T06:54:54.382Z,16.25
2019-04-27T06:57:24.335Z,15.72
2019-04-27T06:59:54.023Z,14.47
2019-04-27T07:02:23.877Z,12.82
2019-04-27T07:04:53.816Z,13.62
2019-04-27T07:07:23.650Z,14.47
2019-04-27T07:09:53.368Z,14.15
2019-04-27T07:12:23.386Z,13.18
2019-04-27T07:14:55.162Z,15.08
2019-04-27T07:17:24.677Z,14.05
2019-04-27T07:19:54.467Z,14.13
2019-04-27T07:22:24.256Z,13.93
2019-04-27T07:24:54.093Z,13.90
2019-04-27T07:27:24.086Z,12.82
2019-04-27T07:29:53.851Z,12.78
2019-04-27T07:32:24.847Z,13.60
2019-04-27T07:34:55.325Z,13.28
2019-04-27T07:37:25.572Z,14.23
2019-04-27T07:39:55.204Z,13.35
2019-04-27T07:42:24.975Z,13.45
2019-04-27T07:44:56.427Z,14.43
2019-04-27T07:47:30.750Z,13.30
2019-04-27T07:49:59.590Z,15.43
2019-04-27T07:52:30.711Z,15.98
2019-04-27T07:55:00.644Z,15.23
2019-04-27T07:57:30.460Z,14.43
2019-04-27T08:00:00.149Z,12.68
2019-04-27T08:02:29.901Z,11.55
2019-04-27T08:04:59.721Z,12.93
2019-04-27T08:07:29.501Z,11.43
2019-04-27T08:10:01.470Z,10.53
2019-04-27T08:12:31.826Z,10.28
2019-04-27T08:15:01.594Z,10.03
2019-04-27T08:17:32.582Z,12.65
2019-04-27T08:20:02.533Z,11.22
2019-04-27T08:22:32.183Z,10.58
2019-04-27T08:25:02.051Z,11.28
2019-04-27T08:27:33.603Z,10.85
2019-04-27T08:30:06.269Z,10.85
2019-04-27T08:32:39.053Z,11.00
2019-04-27T08:35:09.781Z,11.10
2019-04-27T08:37:39.522Z,11.10
2019-04-27T08:40:10.015Z,10.68
2019-04-27T08:42:39.785Z,10.88
2019-04-27T08:45:09.866Z,9.73
2019-04-27T08:47:41.744Z,9.78
2019-04-27T08:50:12.554Z,9.80
2019-04-27T08:52:42.960Z,9.23
2019-04-27T08:55:14.638Z,9.68
2019-04-27T08:57:44.600Z,9.65
2019-04-27T09:00:14.661Z,9.15
2019-04-27T09:02:47.243Z,9.25
2019-04-27T09:07:49.673Z,8.70
2019-04-27T09:10:22.157Z,9.55
2019-04-27T09:12:53.904Z,9.30
2019-04-27T09:15:25.573Z,9.03
2019-04-27T09:20:28.664Z,8.73
2019-04-27T09:22:59.239Z,8.33
2019-04-27T09:25:29.644Z,8.50
2019-04-27T09:27:59.806Z,8.98
2019-04-27T09:30:29.892Z,9.08
2019-04-27T09:33:00.067Z,9.65
2019-04-27T09:35:30.074Z,8.55
2019-04-27T09:37:59.751Z,10.35
2019-04-27T09:40:29.682Z,9.65
2019-04-27T09:42:59.464Z,10.63
2019-04-27T09:45:29.380Z,9.53
2019-04-27T09:47:59.349Z,10.88
2019-04-27T09:50:29.352Z,11.73
2019-04-27T09:53:00.303Z,11.88
2019-04-27T09:55:30.168Z,11.53
2019-04-27T09:58:00.001Z,12.33
2019-04-27T10:00:29.920Z,11.15
2019-04-27T10:02:59.818Z,11.28
2019-04-27T10:05:29.670Z,10.98
2019-04-27T10:07:59.494Z,10.53
2019-04-27T10:10:29.260Z,10.53
2019-04-27T10:12:59.143Z,11.35
2019-04-27T10:15:28.909Z,11.50
2019-04-27T10:17:58.833Z,10.82
2019-04-27T10:20:28.855Z,10.80
2019-04-27T10:22:58.582Z,10.70
2019-04-27T10:25:29.137Z,10.55
2019-04-27T10:27:58.971Z,10.90
2019-04-27T10:30:30.290Z,10.48
2019-04-27T10:33:01.115Z,11.30
2019-04-27T10:35:32.007Z,11.40
2019-04-27T10:38:02.152Z,11.55
2019-04-27T10:40:32.056Z,11.05
2019-04-27T10:43:01.917Z,10.68
2019-04-27T10:48:03.482Z,11.97
2019-04-27T10:50:33.410Z,12.53
2019-04-27T10:53:03.151Z,12.65
2019-04-27T10:55:33.084Z,12.58
2019-04-27T10:58:02.912Z,13.90
2019-04-27T11:00:34.431Z,14.43
2019-04-27T11:03:06.200Z,13.05
2019-04-27T11:05:37.763Z,12.63
2019-04-27T11:08:07.725Z,13.65
2019-04-27T11:10:37.711Z,14.25
2019-04-27T11:13:07.433Z,12.07
2019-04-27T11:15:37.475Z,11.90
2019-04-27T11:18:07.466Z,12.23
2019-04-27T11:20:37.144Z,12.13
2019-04-27T11:23:12.127Z,12.37
2019-04-27T11:28:07.424Z,13.18
2019-04-27T11:30:37.394Z,12.65
2019-04-27T11:33:07.303Z,11.60
2019-04-27T11:35:39.073Z,11.03
2019-04-27T11:38:09.034Z,11.63
2019-04-27T11:40:38.896Z,14.63
2019-04-27T11:43:08.730Z,11.33
2019-04-27T11:45:38.521Z,11.85
2019-04-27T11:48:08.438Z,13.30
2019-04-27T11:50:39.439Z,11.70
2019-04-27T11:53:19.785Z,11.97
2019-04-27T11:58:09.760Z,11.03
2019-04-27T12:00:39.552Z,11.28
2019-04-27T12:03:09.300Z,12.03
2019-04-27T12:05:39.021Z,11.73
2019-04-27T12:08:08.808Z,11.55
2019-04-27T12:10:38.552Z,11.25
2019-04-27T12:13:08.263Z,10.95
2019-04-27T12:15:38.298Z,10.90
2019-04-27T12:18:09.100Z,11.33
2019-04-27T12:20:39.253Z,10.93
2019-04-27T12:23:09.104Z,10.20
2019-04-27T12:25:39.024Z,10.05
2019-04-27T12:28:10.495Z,10.60
2019-04-27T12:30:41.965Z,10.75
2019-04-27T12:33:11.989Z,11.10
2019-04-27T12:35:41.824Z,11.12
2019-04-27T12:38:11.687Z,10.85
2019-04-27T12:40:41.534Z,9.58
2019-04-27T12:43:11.484Z,10.20
2019-04-27T12:45:43.597Z,10.15
2019-04-27T12:50:42.036Z,10.88
2019-04-27T12:53:13.552Z,10.48
2019-04-27T12:58:16.439Z,10.82
2019-04-27T13:00:48.086Z,10.58
2019-04-27T13:05:46.971Z,9.83
2019-04-27T13:08:16.892Z,10.58
2019-04-27T13:10:46.775Z,10.03
2019-04-27T13:13:16.606Z,9.75
2019-04-27T13:15:47.401Z,10.08
2019-04-27T13:18:17.292Z,10.32
2019-04-27T13:20:47.144Z,9.75
2019-04-27T13:23:17.042Z,9.18
2019-04-27T13:25:46.728Z,9.83
2019-04-27T13:28:18.567Z,10.00
2019-04-27T13:30:48.015Z,9.63
2019-04-27T13:33:17.982Z,10.50
2019-04-27T13:35:47.904Z,9.25
2019-04-27T13:38:18.130Z,10.08
2019-04-27T13:40:49.607Z,9.13
2019-04-27T13:45:51.475Z,9.80
2019-04-27T13:50:53.233Z,10.05
2019-04-27T13:53:23.164Z,9.23
2019-04-27T13:55:53.053Z,9.40
2019-04-27T13:58:22.933Z,9.68
2019-04-27T14:00:52.672Z,9.68
2019-04-27T14:03:22.605Z,9.23
2019-04-27T14:05:52.646Z,9.03
2019-04-27T14:08:24.243Z,9.75
2019-04-27T14:10:54.732Z,10.20
2019-04-27T14:13:24.582Z,9.68
2019-04-27T14:15:54.168Z,9.85
2019-04-27T14:18:24.073Z,9.18
2019-04-27T14:20:53.912Z,9.70
2019-04-27T14:23:25.152Z,9.20
2019-04-27T14:25:54.975Z,10.32
2019-04-27T14:28:24.869Z,9.45
2019-04-27T14:30:54.754Z,9.98
2019-04-27T14:33:24.646Z,10.03
2019-04-27T14:35:54.541Z,9.48
2019-04-27T14:38:24.071Z,10.32
2019-04-27T14:40:53.911Z,10.23
2019-04-27T14:43:23.895Z,11.28
2019-04-27T14:45:53.855Z,10.53
2019-04-27T14:48:23.672Z,10.93
2019-04-27T14:50:53.435Z,11.03
2019-04-27T14:53:23.406Z,11.10
2019-04-27T14:55:53.272Z,10.85
2019-04-27T14:58:23.192Z,11.05
2019-04-27T15:00:53.044Z,10.85
2019-04-27T15:03:22.883Z,13.20
2019-04-27T15:05:53.751Z,11.12
2019-04-27T15:08:25.554Z,10.23
2019-04-27T15:13:24.664Z,10.30
2019-04-27T15:15:54.480Z,9.43
2019-04-27T15:18:25.922Z,9.68
2019-04-27T15:20:58.563Z,9.40
2019-04-27T15:26:00.371Z,9.50
2019-04-27T15:36:42.081Z,8.70
2019-04-27T15:39:13.471Z,8.83
2019-04-27T15:44:14.340Z,8.40
2019-04-27T15:46:44.204Z,8.03
2019-04-27T15:49:14.037Z,8.18
2019-04-27T15:51:43.937Z,8.00
2019-04-27T15:54:13.849Z,8.60
2019-04-27T15:56:43.863Z,8.25
2019-04-27T15:59:13.697Z,7.95
2019-04-27T16:01:43.529Z,7.55
2019-04-27T16:04:13.421Z,8.00
2019-04-27T16:06:47.425Z,7.47
2019-04-27T16:11:50.054Z,6.65
2019-04-27T16:16:48.851Z,7.60
2019-04-27T16:19:18.711Z,7.62
2019-04-27T16:21:54.037Z,7.20
2019-04-27T16:26:54.612Z,7.95
2019-04-27T16:31:52.604Z,7.53
2019-04-27T16:34:23.487Z,7.92
2019-04-27T16:36:53.390Z,8.08
2019-04-27T16:39:23.444Z,7.80
2019-04-27T16:41:53.278Z,8.40
2019-04-27T16:44:23.160Z,8.88
2019-04-27T16:46:53.077Z,8.53
2019-04-27T16:49:24.441Z,7.97
2019-04-27T16:51:54.156Z,8.48
2019-04-27T16:54:23.957Z,8.00
2019-04-27T16:57:02.448Z,7.58
2019-04-27T16:59:42.301Z,7.95
2019-04-27T17:01:56.859Z,8.30
2019-04-27T17:04:26.636Z,8.73
2019-04-27T17:06:56.531Z,8.55
2019-04-27T17:09:26.389Z,8.35
2019-04-27T17:11:56.729Z,8.55
2019-04-27T17:14:34.956Z,7.92
2019-04-27T17:17:03.649Z,9.25
2019-04-27T17:19:41.251Z,8.33
2019-04-27T17:22:10.499Z,8.48
2019-04-27T17:24:44.034Z,8.78
2019-04-27T17:27:11.700Z,8.93
2019-04-27T17:29:42.086Z,9.68
2019-04-27T17:32:13.663Z,9.48
2019-04-27T17:34:43.468Z,9.18
2019-04-27T17:37:13.393Z,8.80
2019-04-27T17:39:43.271Z,9.30
2019-04-27T17:42:13.139Z,10.23
2019-04-27T17:44:42.969Z,9.93
2019-04-27T17:47:12.841Z,10.05
2019-04-27T17:49:42.555Z,9.45
2019-04-27T17:52:13.037Z,9.68
2019-04-27T17:54:47.409Z,9.75
2019-04-27T17:57:15.214Z,10.10
2019-04-27T17:59:45.091Z,11.18
2019-04-27T18:02:15.012Z,11.03
2019-04-27T18:04:44.833Z,10.45
2019-04-27T18:07:14.672Z,10.93
2019-04-27T18:09:44.620Z,10.08
2019-04-27T18:12:15.803Z,10.48
2019-04-27T18:14:45.800Z,9.53
2019-04-27T18:17:15.580Z,10.82
2019-04-27T18:19:47.012Z,10.82
2019-04-27T18:22:18.155Z,11.53
2019-04-27T18:24:49.961Z,11.15
2019-04-27T18:27:21.781Z,11.25
2019-04-27T18:32:23.566Z,11.70
2019-04-27T18:34:52.027Z,12.28
2019-04-27T18:37:24.981Z,11.88
2019-04-27T18:39:55.016Z,12.60
2019-04-27T18:42:28.038Z,12.60
2019-04-27T18:44:56.487Z,12.40
2019-04-27T18:47:26.179Z,12.28
2019-04-27T18:50:07.992Z,13.28
2019-04-27T18:52:30.684Z,13.00
2019-04-27T18:55:00.539Z,12.60
2019-04-27T18:57:30.388Z,12.93
2019-04-27T19:00:00.223Z,12.53
2019-04-27T19:02:30.085Z,12.90
2019-04-27T19:04:59.897Z,12.28
2019-04-27T19:07:29.609Z,12.45
2019-04-27T19:09:59.419Z,12.23
2019-04-27T19:12:29.176Z,12.00
2019-04-27T19:14:59.106Z,12.20
2019-04-27T19:17:28.912Z,13.05
2019-04-27T19:19:58.801Z,13.75
2019-04-27T19:22:30.030Z,13.25
2019-04-27T19:24:59.993Z,12.45
2019-04-27T19:27:31.437Z,13.10
2019-04-27T19:30:02.900Z,13.08
2019-04-27T19:32:33.607Z,12.75
2019-04-27T19:35:04.924Z,12.82
2019-04-27T19:37:34.681Z,13.30
2019-04-27T19:40:06.295Z,14.13
2019-04-27T19:42:38.592Z,13.38
2019-04-27T19:45:08.677Z,13.15
2019-04-27T19:47:38.467Z,13.00
2019-04-27T19:50:10.237Z,13.30
2019-04-27T19:55:09.206Z,13.18
2019-04-27T19:57:41.971Z,13.68
2019-04-27T20:00:12.432Z,13.35
2019-04-27T20:02:42.562Z,13.68
2019-04-27T20:05:16.303Z,14.83
2019-04-27T20:07:44.777Z,14.63
2019-04-27T20:10:14.826Z,15.05
2019-04-27T20:12:44.632Z,16.82
2019-04-27T20:15:14.515Z,17.65
2019-04-27T20:17:44.336Z,17.20
2019-04-27T20:20:14.353Z,17.25
2019-04-27T20:22:43.955Z,17.00
2019-04-27T20:25:13.862Z,16.48
2019-04-27T20:27:49.633Z,17.60
2019-04-27T20:30:15.549Z,16.80
2019-04-27T20:32:45.537Z,15.72
2019-04-27T20:35:15.284Z,15.40
2019-04-27T20:37:45.164Z,14.73
2019-04-27T20:40:15.354Z,15.60
2019-04-27T20:42:44.996Z,14.68
2019-04-27T20:45:15.111Z,15.20
2019-04-27T20:47:44.566Z,14.80
2019-04-27T20:50:14.485Z,15.00
2019-04-27T20:52:45.732Z,14.87
2019-04-27T20:55:15.612Z,14.13
2019-04-27T20:57:58.399Z,14.58
2019-04-27T21:00:18.731Z,13.58
2019-04-27T21:02:51.833Z,11.85
2019-04-27T21:05:23.228Z,13.70
2019-04-27T21:07:54.571Z,13.43
2019-04-27T21:10:24.412Z,13.48
2019-04-27T21:12:54.443Z,12.20
2019-04-27T21:15:24.211Z,12.70
2019-04-27T21:17:54.027Z,12.80
2019-04-27T21:20:23.829Z,11.55
2019-04-27T21:22:53.760Z,12.45
2019-04-27T21:25:23.547Z,12.07
2019-04-27T21:27:53.380Z,11.80
2019-04-27T21:30:23.300Z,11.55
2019-04-27T21:32:54.622Z,11.53
2019-04-27T21:35:24.451Z,10.88
2019-04-27T21:37:54.214Z,11.03
2019-04-27T21:40:24.138Z,11.45
2019-04-27T21:42:53.884Z,10.28
2019-04-27T21:45:23.697Z,10.28
2019-04-27T21:47:53.571Z,9.85
2019-04-27T21:50:23.439Z,9.80
2019-04-27T21:55:42.218Z,9.58
2019-04-27T21:58:13.115Z,10.13
2019-04-27T22:00:44.559Z,9.40
2019-04-27T22:03:17.503Z,9.65
2019-04-27T22:05:47.411Z,8.95
2019-04-27T22:08:17.380Z,9.98
2019-04-27T22:10:47.260Z,9.38
2019-04-27T22:13:17.155Z,9.35
2019-04-27T22:15:46.884Z,9.60
2019-04-27T22:18:16.827Z,10.20
2019-04-27T22:20:46.741Z,9.75
2019-04-27T22:23:18.215Z,9.33
2019-04-27T22:25:48.169Z,9.08
2019-04-27T22:28:18.068Z,9.43
2019-04-27T22:30:47.920Z,9.53
2019-04-27T22:33:17.720Z,9.48
2019-04-27T22:35:47.527Z,9.70
2019-04-27T22:38:17.321Z,9.43
2019-04-27T22:40:48.637Z,10.95
2019-04-27T22:43:20.133Z,9.73
2019-04-27T22:45:51.051Z,10.00
2019-04-27T22:48:21.039Z,10.32
2019-04-27T22:50:51.485Z,9.80
2019-04-27T22:53:21.460Z,10.10
2019-04-27T22:55:52.790Z,9.90
2019-04-27T22:58:22.665Z,9.73
2019-04-27T23:00:54.022Z,9.78
2019-04-27T23:03:25.240Z,10.93
2019-04-27T23:05:55.160Z,10.65
2019-04-27T23:08:24.976Z,11.10
2019-04-27T23:10:54.933Z,10.08
2019-04-27T23:13:24.572Z,9.85
2019-04-27T23:15:55.835Z,10.10
2019-04-27T23:18:25.643Z,10.28
2019-04-27T23:20:55.327Z,10.53
2019-04-27T23:23:25.147Z,9.78
2019-04-27T23:25:55.127Z,10.40
2019-04-27T23:28:24.891Z,10.78
2019-04-27T23:30:56.385Z,10.32
2019-04-27T23:33:26.447Z,10.25
2019-04-27T23:35:56.252Z,10.95
2019-04-27T23:38:26.096Z,9.78
2019-04-27T23:40:56.789Z,10.03
2019-04-27T23:43:26.682Z,10.70
2019-04-27T23:45:57.648Z,9.78
2019-04-27T23:48:27.732Z,10.93
2019-04-27T23:50:59.029Z,10.35
2019-04-27T23:53:31.741Z,10.68
2019-04-27T23:56:01.401Z,10.40
2019-04-27T23:58:31.252Z,10.48
